Time;durP1;ratioP1;P1;durP2;ratioP2;P2;SDS_P1;SDS_P2;PMS_P1;PMS_P2;Temp;Humidity;BMP_temperature;BMP_pressure;BME280_temperature;BME280_humidity;BME280_pressure;Samples;Min_cycle;Max_cycle;Signal;HPM_P1;HPM_P2
2022/09/10 00:00:57;;;;;;;9.65;5.22;;;11.70;65.00;;;;;;5055719;28;20465;-84
2022/09/10 00:03:23;;;;;;;9.05;5.07;;;11.70;65.00;;;;;;5056688;28;20112;-83
2022/09/10 00:05:50;;;;;;;8.10;5.18;;;11.70;65.00;;;;;;5069180;28;20031;-82
2022/09/10 00:08:17;;;;;;;9.35;4.60;;;11.70;65.10;;;;;;5073426;28;20032;-84
2022/09/10 00:10:47;;;;;;;9.43;5.30;;;11.60;65.10;;;;;;5044551;28;20044;-84
2022/09/10 00:13:15;;;;;;;9.88;5.68;;;11.70;65.20;;;;;;5055160;28;20029;-84
2022/09/10 00:15:44;;;;;;;10.27;5.45;;;11.60;65.10;;;;;;5056290;28;20049;-84
2022/09/10 00:18:11;;;;;;;8.85;5.65;;;11.60;65.20;;;;;;5056592;28;20159;-84
2022/09/10 00:20:53;;;;;;;9.90;5.45;;;11.60;65.20;;;;;;5061732;28;20507;-83
2022/09/10 00:23:22;;;;;;;9.95;5.55;;;11.60;65.20;;;;;;5056382;28;20044;-82
2022/09/10 00:25:50;;;;;;;11.25;6.30;;;11.60;65.20;;;;;;5072128;28;20090;-85
2022/09/10 00:28:17;;;;;;;9.93;6.38;;;11.60;65.20;;;;;;5027084;28;20127;-84
2022/09/10 00:30:45;;;;;;;13.45;6.22;;;11.60;65.20;;;;;;5059683;28;20045;-82
2022/09/10 00:33:12;;;;;;;16.42;6.88;;;11.60;65.30;;;;;;5054528;28;20047;-83
2022/09/10 00:35:41;;;;;;;15.40;6.80;;;11.60;65.30;;;;;;5045478;28;20048;-83
2022/09/10 00:38:09;;;;;;;13.85;6.78;;;11.60;65.30;;;;;;5054450;28;20064;-83
2022/09/10 00:40:37;;;;;;;15.30;8.10;;;11.60;65.40;;;;;;5056909;28;20029;-84
2022/09/10 00:43:08;;;;;;;13.48;7.85;;;11.60;65.40;;;;;;5054576;28;20044;-83
2022/09/10 00:45:34;;;;;;;16.58;7.15;;;11.60;65.50;;;;;;5039059;28;20036;-83
2022/09/10 00:48:10;;;;;;;13.65;6.30;;;11.60;65.60;;;;;;5055190;28;20044;-84
2022/09/10 00:50:41;;;;;;;14.32;7.03;;;11.50;65.60;;;;;;5057929;28;20507;-84
2022/09/10 00:53:11;;;;;;;16.67;7.18;;;11.50;65.70;;;;;;5027430;28;20043;-87
2022/09/10 00:55:41;;;;;;;15.02;6.95;;;11.50;65.70;;;;;;5043956;28;20092;-85
2022/09/10 00:58:10;;;;;;;15.07;7.53;;;11.50;65.70;;;;;;5022221;28;20086;-84
2022/09/10 01:00:38;;;;;;;15.63;6.97;;;11.50;65.80;;;;;;5055824;28;20033;-86
2022/09/10 01:03:06;;;;;;;13.85;7.40;;;11.50;65.90;;;;;;5059978;28;20495;-84
2022/09/10 01:05:33;;;;;;;13.35;7.22;;;11.40;66.00;;;;;;5039829;28;20054;-82
2022/09/10 01:07:59;;;;;;;14.80;7.65;;;11.50;66.00;;;;;;5019529;28;20040;-85
2022/09/10 01:10:28;;;;;;;13.43;7.10;;;11.40;66.10;;;;;;5039051;28;20060;-85
2022/09/10 01:12:59;;;;;;;15.20;7.50;;;11.40;66.20;;;;;;5037754;28;20042;-84
2022/09/10 01:16:04;;;;;;;13.57;7.22;;;11.40;66.20;;;;;;5038751;28;20071;-85
2022/09/10 01:18:54;;;;;;;18.23;7.97;;;11.40;66.20;;;;;;5053266;28;20040;-83
2022/09/10 01:21:29;;;;;;;12.95;6.30;;;11.40;66.30;;;;;;5039950;28;20063;-86
2022/09/10 01:24:01;;;;;;;16.50;7.53;;;11.40;66.40;;;;;;5032731;28;20032;-87
2022/09/10 01:26:53;;;;;;;19.27;7.60;;;11.40;66.60;;;;;;5015531;28;20037;-85
2022/09/10 01:29:28;;;;;;;13.40;6.68;;;11.40;66.70;;;;;;5025501;28;20079;-86
2022/09/10 01:32:14;;;;;;;11.60;6.25;;;11.30;66.60;;;;;;5057747;28;20037;-84
2022/09/10 01:35:06;;;;;;;12.50;6.72;;;11.30;66.80;;;;;;5039416;28;20039;-84
2022/09/10 01:37:37;;;;;;;16.02;7.35;;;11.30;66.90;;;;;;5009610;28;20029;-84
2022/09/10 01:40:05;;;;;;;13.20;6.93;;;11.30;66.90;;;;;;5037704;28;20040;-84
2022/09/10 01:42:38;;;;;;;16.27;7.18;;;11.30;67.00;;;;;;5030609;28;20029;-85
2022/09/10 01:45:05;;;;;;;12.73;7.35;;;11.30;67.10;;;;;;5021308;28;20036;-84
2022/09/10 01:47:36;;;;;;;14.75;7.55;;;11.30;67.10;;;;;;5022764;28;20028;-83
2022/09/10 01:50:30;;;;;;;16.23;7.07;;;11.30;67.20;;;;;;5014918;28;20029;-84
2022/09/10 01:53:32;;;;;;;13.75;6.93;;;11.30;67.30;;;;;;5053370;28;20036;-84
2022/09/10 01:56:09;;;;;;;15.10;7.40;;;11.20;67.30;;;;;;5015516;28;20049;-84
2022/09/10 01:58:41;;;;;;;14.63;7.00;;;11.20;67.40;;;;;;5038821;28;20291;-84
2022/09/10 02:01:43;;;;;;;13.88;6.65;;;11.30;67.50;;;;;;5040439;28;20033;-85
2022/09/10 02:04:13;;;;;;;14.43;6.80;;;11.20;67.60;;;;;;5021503;28;20033;-85
2022/09/10 02:06:41;;;;;;;15.25;7.20;;;11.20;67.60;;;;;;5025548;28;20361;-84
2022/09/10 02:09:11;;;;;;;12.70;6.28;;;11.20;67.70;;;;;;5010362;28;20044;-84
2022/09/10 02:11:52;;;;;;;13.55;6.88;;;11.20;67.70;;;;;;5026327;28;20098;-84
2022/09/10 02:14:36;;;;;;;12.95;7.00;;;11.20;67.70;;;;;;5055721;28;20049;-84
2022/09/10 02:17:20;;;;;;;15.93;7.65;;;11.20;67.80;;;;;;5054137;28;20104;-85
2022/09/10 02:19:52;;;;;;;13.25;6.95;;;11.20;67.90;;;;;;5036918;28;20024;-84
2022/09/10 02:22:24;;;;;;;15.52;7.32;;;11.20;68.00;;;;;;5025110;28;20404;-85
2022/09/10 02:24:51;;;;;;;10.90;6.50;;;11.20;68.10;;;;;;5028808;28;20047;-83
2022/09/10 02:27:17;;;;;;;13.75;7.63;;;11.10;68.10;;;;;;5038085;28;20028;-85
2022/09/10 02:29:43;;;;;;;13.65;7.28;;;11.10;68.20;;;;;;5040922;28;20082;-84
2022/09/10 02:32:09;;;;;;;13.57;7.22;;;11.10;68.20;;;;;;5036670;28;20041;-84
2022/09/10 02:34:35;;;;;;;14.48;7.25;;;11.10;68.20;;;;;;5037788;28;20127;-82
2022/09/10 02:37:02;;;;;;;11.35;7.18;;;11.10;68.20;;;;;;5037064;28;20396;-84
2022/09/10 02:39:29;;;;;;;12.05;6.97;;;11.10;68.30;;;;;;5030031;28;20032;-85
2022/09/10 02:42:00;;;;;;;13.85;6.80;;;11.10;68.30;;;;;;5053195;28;20025;-85
2022/09/10 02:44:27;;;;;;;11.90;6.85;;;11.10;68.30;;;;;;5037837;28;20086;-85
2022/09/10 02:46:54;;;;;;;16.05;7.25;;;11.10;68.40;;;;;;5025735;28;20029;-85
2022/09/10 02:49:20;;;;;;;19.10;7.63;;;11.10;68.40;;;;;;5031329;28;20036;-85
2022/09/10 02:51:49;;;;;;;14.20;7.35;;;11.10;68.40;;;;;;5053385;28;20502;-85
2022/09/10 02:54:19;;;;;;;12.85;6.65;;;11.10;68.30;;;;;;5046037;28;20037;-84
2022/09/10 02:56:48;;;;;;;13.57;7.85;;;11.00;68.10;;;;;;5035438;28;20103;-84
2022/09/10 02:59:16;;;;;;;16.05;7.50;;;11.00;68.20;;;;;;5036911;28;20063;-85
2022/09/10 03:01:42;;;;;;;13.80;6.93;;;11.00;68.40;;;;;;5054123;28;20060;-86
2022/09/10 03:04:09;;;;;;;12.43;7.30;;;11.00;68.40;;;;;;5053478;28;20035;-86
2022/09/10 03:06:35;;;;;;;11.98;6.63;;;11.00;68.50;;;;;;5053296;28;20032;-84
2022/09/10 03:09:03;;;;;;;13.80;7.72;;;11.00;68.50;;;;;;5054349;28;20522;-83
2022/09/10 03:11:30;;;;;;;12.27;6.88;;;11.00;68.50;;;;;;5036682;28;20078;-83
2022/09/10 03:13:57;;;;;;;12.25;6.78;;;11.00;68.50;;;;;;5037376;28;20033;-84
2022/09/10 03:16:23;;;;;;;11.27;7.05;;;11.00;68.50;;;;;;5026125;28;20041;-82
2022/09/10 03:18:50;;;;;;;13.75;7.10;;;11.00;68.50;;;;;;5058364;28;20033;-84
2022/09/10 03:21:23;;;;;;;13.50;7.00;;;11.00;68.50;;;;;;5028791;28;20103;-84
2022/09/10 03:23:51;;;;;;;12.98;7.07;;;11.00;68.50;;;;;;5040404;28;20036;-85
2022/09/10 03:26:24;;;;;;;12.02;7.05;;;11.00;68.50;;;;;;5018710;28;20476;-84
2022/09/10 03:28:51;;;;;;;13.65;7.00;;;11.00;68.50;;;;;;5024832;28;20052;-85
2022/09/10 03:31:19;;;;;;;12.25;6.00;;;11.00;68.50;;;;;;5041255;28;20039;-85
2022/09/10 03:33:48;;;;;;;14.50;7.50;;;11.00;68.50;;;;;;5040120;28;20584;-84
2022/09/10 03:36:14;;;;;;;12.65;6.57;;;11.00;68.50;;;;;;5045893;28;20190;-85
2022/09/10 03:38:42;;;;;;;12.65;6.50;;;11.00;68.50;;;;;;5024747;28;20056;-84
2022/09/10 03:41:08;;;;;;;12.27;6.63;;;11.00;68.50;;;;;;5040236;28;20033;-83
2022/09/10 03:43:34;;;;;;;11.88;6.82;;;11.00;68.60;;;;;;5040488;28;20040;-83
2022/09/10 03:46:05;;;;;;;14.18;7.43;;;11.00;68.50;;;;;;5056787;28;20036;-84
2022/09/10 03:48:34;;;;;;;12.60;7.15;;;11.00;68.50;;;;;;5029694;28;20484;-83
2022/09/10 03:51:00;;;;;;;12.63;6.82;;;11.00;68.40;;;;;;5057241;28;20033;-83
2022/09/10 03:53:28;;;;;;;13.23;6.18;;;11.00;68.40;;;;;;5025130;28;20029;-83
2022/09/10 03:55:54;;;;;;;14.38;6.28;;;11.00;68.40;;;;;;5056875;28;20138;-83
2022/09/10 03:58:21;;;;;;;10.60;6.10;;;11.00;69.00;;;;;;5041027;28;20080;-83
2022/09/10 04:00:47;;;;;;;9.75;6.35;;;11.00;68.40;;;;;;5056781;28;20543;-81
2022/09/10 04:03:15;;;;;;;13.27;6.63;;;11.00;68.50;;;;;;5040197;28;20059;-83
2022/09/10 04:05:42;;;;;;;10.63;6.53;;;11.00;68.50;;;;;;5040348;28;20036;-83
2022/09/10 04:08:10;;;;;;;11.55;6.63;;;11.00;68.50;;;;;;5056826;28;20169;-83
2022/09/10 04:10:37;;;;;;;15.27;6.63;;;11.00;68.50;;;;;;5039854;28;20538;-84
2022/09/10 04:13:04;;;;;;;13.73;6.68;;;11.00;68.50;;;;;;5056491;28;20519;-84
2022/09/10 04:15:33;;;;;;;11.77;6.38;;;11.00;68.60;;;;;;5056294;28;20067;-83
2022/09/10 04:18:00;;;;;;;11.20;7.35;;;11.00;68.70;;;;;;5055241;28;20076;-83
2022/09/10 04:20:27;;;;;;;17.50;9.52;;;11.00;68.70;;;;;;5057721;28;21481;-82
2022/09/10 04:23:00;;;;;;;26.88;13.63;;;11.00;68.90;;;;;;5039467;28;20511;-84
2022/09/10 04:25:27;;;;;;;23.88;11.82;;;11.00;69.10;;;;;;5043046;28;20033;-84
2022/09/10 04:27:53;;;;;;;16.33;9.98;;;11.10;69.10;;;;;;5029185;28;20052;-83
2022/09/10 04:30:19;;;;;;;19.88;11.52;;;11.10;69.20;;;;;;5039548;28;20045;-84
2022/09/10 04:32:46;;;;;;;18.50;10.10;;;11.10;69.30;;;;;;5055066;28;20036;-83
2022/09/10 04:35:15;;;;;;;18.55;9.93;;;11.10;69.30;;;;;;5045213;28;20165;-82
2022/09/10 04:37:42;;;;;;;19.50;10.23;;;11.10;69.40;;;;;;5056146;28;20029;-83
2022/09/10 04:40:10;;;;;;;17.55;8.90;;;11.10;69.50;;;;;;5071665;28;21146;-84
2022/09/10 04:42:37;;;;;;;18.67;9.55;;;11.10;69.60;;;;;;5042983;28;20040;-85
2022/09/10 04:45:04;;;;;;;19.60;9.25;;;11.10;69.60;;;;;;5026805;28;20032;-85
2022/09/10 04:47:32;;;;;;;15.25;9.38;;;11.10;69.80;;;;;;5039991;28;20123;-86
2022/09/10 04:49:59;;;;;;;17.45;8.98;;;11.20;70.00;;;;;;5039501;28;20127;-86
2022/09/10 04:52:25;;;;;;;13.70;8.93;;;11.20;70.10;;;;;;5039421;28;20047;-85
2022/09/10 04:54:52;;;;;;;19.90;9.43;;;11.20;70.20;;;;;;5061086;28;20028;-83
2022/09/10 04:57:18;;;;;;;22.20;9.25;;;11.20;70.30;;;;;;5038794;28;20032;-82
2022/09/10 04:59:45;;;;;;;17.73;8.57;;;11.20;70.40;;;;;;5054124;28;20036;-81
2022/09/10 05:02:12;;;;;;;15.80;9.10;;;11.30;70.50;;;;;;5053691;28;20021;-82
2022/09/10 05:04:38;;;;;;;17.60;8.35;;;11.30;70.80;;;;;;5016835;28;20060;-84
2022/09/10 05:07:05;;;;;;;15.60;8.82;;;11.50;70.70;;;;;;5035563;28;20078;-85
2022/09/10 05:09:32;;;;;;;12.18;7.85;;;11.70;70.50;;;;;;5036641;28;20037;-83
2022/09/10 05:12:01;;;;;;;12.13;8.02;;;11.90;70.10;;;;;;5019816;28;20087;-84
2022/09/10 05:14:28;;;;;;;12.77;7.47;;;12.10;69.60;;;;;;5052450;28;20028;-83
2022/09/10 05:16:55;;;;;;;13.05;7.55;;;12.30;68.80;;;;;;5065592;28;20416;-87
2022/09/10 05:19:21;;;;;;;15.15;7.47;;;12.50;68.30;;;;;;5019834;28;20068;-84
2022/09/10 05:21:56;;;;;;;11.55;7.15;;;12.70;67.90;;;;;;5053394;28;20191;-85
2022/09/10 05:24:22;;;;;;;11.25;6.82;;;12.90;67.70;;;;;;5054886;28;20037;-86
2022/09/10 05:26:48;;;;;;;12.23;7.30;;;13.10;67.50;;;;;;5055096;28;20679;-84
2022/09/10 05:29:15;;;;;;;10.80;6.93;;;13.30;67.20;;;;;;5041427;28;20036;-82
2022/09/10 05:31:41;;;;;;;11.40;6.85;;;13.40;66.90;;;;;;5036254;28;20029;-86
2022/09/10 05:34:08;;;;;;;8.68;6.57;;;13.60;66.80;;;;;;5037532;28;20033;-85
2022/09/10 05:36:36;;;;;;;11.80;6.82;;;13.80;66.80;;;;;;5062164;28;20056;-87
2022/09/10 05:39:03;;;;;;;9.90;6.40;;;14.00;66.80;;;;;;5059170;28;20043;-84
2022/09/10 05:41:32;;;;;;;11.73;6.63;;;14.20;66.60;;;;;;5039817;28;20058;-88
2022/09/10 05:43:59;;;;;;;10.75;6.13;;;14.40;66.10;;;;;;5021166;28;20078;-76
2022/09/10 05:46:29;;;;;;;10.80;6.95;;;14.60;66.50;;;;;;5053619;28;20033;-76
2022/09/10 05:48:58;;;;;;;8.55;5.85;;;14.80;66.00;;;;;;5055671;28;20453;-75
2022/09/10 05:51:29;;;;;;;10.95;6.43;;;14.90;65.40;;;;;;5054102;28;20040;-76
2022/09/10 05:53:59;;;;;;;12.43;6.05;;;15.10;65.00;;;;;;5041262;28;20087;-77
2022/09/10 05:56:26;;;;;;;8.35;5.90;;;15.20;64.80;;;;;;5053731;28;20041;-76
2022/09/10 05:58:52;;;;;;;9.15;6.15;;;15.30;64.30;;;;;;5060710;28;20029;-76
2022/09/10 06:01:18;;;;;;;10.00;5.43;;;15.50;64.00;;;;;;5037196;28;20053;-76
2022/09/10 06:03:44;;;;;;;8.77;5.55;;;15.70;63.50;;;;;;5030553;28;20033;-77
2022/09/10 06:06:10;;;;;;;9.10;5.95;;;15.90;63.30;;;;;;5031022;28;20091;-76
2022/09/10 06:08:40;;;;;;;7.80;5.20;;;16.00;63.20;;;;;;5031830;28;20064;-77
2022/09/10 06:11:15;;;;;;;;;;;16.20;63.20;;;;;;5039209;28;20417;-75
2022/09/10 06:13:48;;;;;;;8.65;5.63;;;16.30;62.50;;;;;;5021230;28;20023;-76
2022/09/10 06:16:15;;;;;;;8.25;5.07;;;16.40;61.90;;;;;;5043478;28;20049;-76
2022/09/10 06:18:43;;;;;;;9.65;5.03;;;16.70;61.30;;;;;;5044514;28;20621;-76
2022/09/10 06:21:14;;;;;;;9.15;4.93;;;17.00;60.30;;;;;;5022280;28;20036;-76
2022/09/10 06:23:42;;;;;;;9.93;5.30;;;17.30;59.10;;;;;;5068737;28;20033;-77
2022/09/10 06:26:15;;;;;;;9.68;5.55;;;17.60;58.30;;;;;;5031647;28;20072;-77
2022/09/10 06:28:43;;;;;;;7.75;4.88;;;17.90;57.60;;;;;;5014993;28;20030;-77
2022/09/10 06:31:15;;;;;;;8.15;5.00;;;18.00;57.30;;;;;;5032267;28;20037;-77
2022/09/10 06:33:46;;;;;;;6.35;4.60;;;18.00;57.40;;;;;;5015401;28;20030;-77
2022/09/10 06:36:14;;;;;;;5.80;4.43;;;17.90;58.60;;;;;;5031978;28;20040;-78
2022/09/10 06:38:42;;;;;;;5.43;4.28;;;17.90;59.20;;;;;;5033272;28;20037;-77
2022/09/10 06:41:15;;;;;;;4.28;3.83;;;17.90;58.80;;;;;;5067598;28;20071;-81
2022/09/10 06:43:47;;;;;;;6.07;3.40;;;17.90;58.30;;;;;;5036661;28;20673;-78
2022/09/10 06:46:26;;;;;;;5.22;3.25;;;18.00;58.00;;;;;;5067487;28;20037;-81
2022/09/10 06:49:04;;;;;;;4.65;3.30;;;18.00;57.70;;;;;;5044133;28;20028;-80
2022/09/10 06:51:33;;;;;;;4.80;3.10;;;18.10;57.60;;;;;;5053735;28;20071;-82
2022/09/10 06:54:01;;;;;;;3.15;2.63;;;18.10;57.40;;;;;;5042597;28;20045;-77
2022/09/10 06:56:28;;;;;;;3.75;2.90;;;18.20;57.20;;;;;;5050737;28;20053;-75
2022/09/10 06:58:56;;;;;;;3.28;2.40;;;18.20;56.90;;;;;;5051497;28;20041;-77
2022/09/10 07:01:24;;;;;;;3.40;2.35;;;18.30;56.90;;;;;;5056973;28;20032;-77
2022/09/10 07:03:58;;;;;;;2.90;2.33;;;18.40;56.90;;;;;;5051849;28;20033;-77
2022/09/10 07:06:27;;;;;;;3.67;2.33;;;18.50;56.70;;;;;;5055800;28;20033;-77
2022/09/10 07:09:03;;;;;;;2.58;2.10;;;18.50;56.60;;;;;;5040994;28;20029;-77
2022/09/10 07:11:33;;;;;;;3.95;2.15;;;18.60;56.30;;;;;;5049597;28;20138;-77
2022/09/10 07:14:01;;;;;;;2.70;1.85;;;18.70;56.20;;;;;;5031738;28;20554;-78
2022/09/10 07:16:30;;;;;;;3.65;2.38;;;18.80;55.70;;;;;;5051079;28;20512;-77
2022/09/10 07:18:58;;;;;;;3.83;1.50;;;18.90;55.30;;;;;;5068783;28;20033;-76
2022/09/10 07:21:36;;;;;;;4.25;2.20;;;18.90;55.30;;;;;;5051089;28;20119;-78
2022/09/10 07:24:05;;;;;;;1.70;1.55;;;18.90;55.30;;;;;;5051734;28;20352;-78
2022/09/10 07:26:33;;;;;;;2.08;1.77;;;19.00;55.40;;;;;;5035740;28;20036;-78
2022/09/10 07:29:01;;;;;;;2.00;1.27;;;19.10;55.30;;;;;;5034980;28;20041;-76
2022/09/10 07:31:32;;;;;;;7.72;1.23;;;19.20;54.80;;;;;;5051991;28;20037;-78
2022/09/10 07:34:02;;;;;;;1.88;1.13;;;19.30;54.40;;;;;;5052539;28;20116;-76
2022/09/10 07:36:30;;;;;;;1.10;1.00;;;19.30;52.70;;;;;;5034945;28;20121;-77
2022/09/10 07:39:00;;;;;;;1.50;0.70;;;19.40;52.70;;;;;;5059347;28;20060;-77
2022/09/10 07:41:28;;;;;;;1.02;0.77;;;19.40;52.50;;;;;;5050841;28;20032;-76
2022/09/10 07:43:57;;;;;;;0.60;0.60;;;19.40;52.60;;;;;;5050846;28;20071;-84
2022/09/10 07:46:29;;;;;;;2.17;0.90;;;19.50;52.30;;;;;;5050287;28;21054;-85
2022/09/10 07:48:57;;;;;;;2.05;1.00;;;19.70;51.00;;;;;;5033458;28;20111;-83
2022/09/10 07:51:25;;;;;;;3.45;1.73;;;19.80;51.90;;;;;;5062882;28;20044;-82
2022/09/10 07:53:54;;;;;;;2.35;1.60;;;19.90;55.30;;;;;;5068967;28;20041;-85
2022/09/10 07:56:24;;;;;;;3.05;1.33;;;20.00;56.70;;;;;;5050028;28;20150;-87
2022/09/10 07:58:52;;;;;;;2.30;1.73;;;20.00;58.20;;;;;;5071185;28;20048;-85
2022/09/10 08:01:20;;;;;;;2.83;1.67;;;20.00;54.80;;;;;;5036375;28;20090;-86
2022/09/10 08:03:47;;;;;;;3.53;1.65;;;20.00;51.80;;;;;;5053809;28;20039;-79
2022/09/10 08:06:17;;;;;;;2.25;1.50;;;20.10;51.50;;;;;;5055687;28;20029;-89
2022/09/10 08:08:44;;;;;;;5.10;1.40;;;20.10;52.00;;;;;;5055609;28;20044;-86
2022/09/10 08:11:17;;;;;;;4.70;1.67;;;20.10;53.20;;;;;;5036938;28;20039;-82
2022/09/10 08:13:49;;;;;;;5.40;1.63;;;20.20;53.50;;;;;;5062776;28;20044;-80
2022/09/10 08:16:24;;;;;;;3.38;1.50;;;20.20;53.80;;;;;;5049678;28;20091;-79
2022/09/10 08:18:56;;;;;;;10.02;2.35;;;20.20;55.00;;;;;;5036236;28;20033;-81
2022/09/10 08:21:24;;;;;;;9.95;2.60;;;20.20;56.70;;;;;;5018765;28;20059;-82
2022/09/10 08:23:53;;;;;;;3.58;2.05;;;20.20;57.10;;;;;;5054487;28;20282;-81
2022/09/10 08:26:22;;;;;;;5.90;1.88;;;20.20;56.00;;;;;;5019137;28;20032;-85
2022/09/10 08:28:54;;;;;;;2.42;1.90;;;20.20;54.70;;;;;;5051704;28;20058;-81
2022/09/10 08:31:23;;;;;;;12.13;2.10;;;20.20;53.40;;;;;;5035581;28;20507;-82
2022/09/10 08:33:55;;;;;;;10.75;2.40;;;20.20;54.50;;;;;;5054016;28;20214;-89
2022/09/10 08:36:24;;;;;;;7.65;1.85;;;20.20;54.50;;;;;;5035437;28;20514;-81
2022/09/10 08:38:51;;;;;;;5.13;1.92;;;20.20;55.80;;;;;;5052429;28;20090;-84
2022/09/10 08:41:34;;;;;;;6.30;1.70;;;20.20;55.60;;;;;;5035059;28;20043;-81
2022/09/10 08:44:04;;;;;;;4.55;2.08;;;20.20;55.60;;;;;;5036878;28;20590;-80
2022/09/10 08:46:44;;;;;;;5.95;1.95;;;20.20;55.70;;;;;;5036613;28;20081;-80
2022/09/10 08:49:32;;;;;;;3.70;2.10;;;20.20;55.70;;;;;;5051186;28;20052;-82
2022/09/10 08:52:32;;;;;;;8.82;2.15;;;20.20;56.70;;;;;;5060581;28;20025;-83
2022/09/10 08:55:16;;;;;;;4.10;1.80;;;20.20;56.80;;;;;;5038484;28;20037;-81
2022/09/10 08:57:52;;;;;;;5.97;2.22;;;20.20;57.40;;;;;;5034381;28;20426;-82
2022/09/10 09:00:22;;;;;;;8.55;2.15;;;20.20;57.40;;;;;;5023054;28;20025;-88
2022/09/10 09:03:01;;;;;;;4.93;1.90;;;20.10;57.00;;;;;;5041052;28;20029;-79
2022/09/10 09:05:45;;;;;;;3.42;2.03;;;20.10;57.30;;;;;;5042486;28;20044;-79
2022/09/10 09:08:18;;;;;;;5.22;1.80;;;20.10;57.30;;;;;;5041730;28;20052;-76
2022/09/10 09:10:58;;;;;;;6.00;2.17;;;20.00;57.50;;;;;;5054944;28;20040;-75
2022/09/10 09:13:52;;;;;;;6.72;2.10;;;20.00;57.40;;;;;;5044392;28;20039;-75
2022/09/10 09:16:34;;;;;;;3.83;1.83;;;20.00;58.00;;;;;;5042628;28;20039;-74
2022/09/10 09:19:33;;;;;;;6.35;1.90;;;20.00;58.60;;;;;;5055912;28;20064;-79
2022/09/10 09:22:28;;;;;;;5.13;1.88;;;20.00;59.20;;;;;;5074583;28;20507;-77
2022/09/10 09:25:06;;;;;;;5.45;1.80;;;19.90;58.80;;;;;;5011242;28;20505;-77
2022/09/10 09:27:38;;;;;;;6.70;1.90;;;19.90;59.60;;;;;;4978476;28;20267;-77
2022/09/10 09:30:32;;;;;;;6.47;1.90;;;19.90;58.20;;;;;;4994248;28;20111;-79
2022/09/10 09:33:15;;;;;;;5.30;1.80;;;19.90;58.80;;;;;;4990534;28;20537;-79
2022/09/10 09:35:54;;;;;;;3.53;1.75;;;19.90;58.20;;;;;;5008984;28;20125;-79
2022/09/10 09:38:22;;;;;;;3.10;1.80;;;19.90;58.90;;;;;;4993453;28;20516;-79
2022/09/10 09:40:57;;;;;;;3.08;1.65;;;19.80;59.10;;;;;;4994201;28;20030;-78
2022/09/10 09:43:55;;;;;;;3.75;1.70;;;19.80;58.40;;;;;;4999893;28;20609;-78
2022/09/10 09:46:23;;;;;;;4.63;1.90;;;19.80;57.20;;;;;;4982730;28;20062;-78
2022/09/10 09:48:58;;;;;;;3.83;1.58;;;19.70;55.50;;;;;;4992896;28;20045;-79
2022/09/10 09:51:29;;;;;;;4.93;1.67;;;19.70;57.40;;;;;;4977920;28;20416;-78
2022/09/10 09:54:03;;;;;;;3.80;1.75;;;19.70;57.10;;;;;;4978021;28;20545;-78
2022/09/10 09:56:36;;;;;;;2.70;1.88;;;19.60;56.90;;;;;;4993694;28;20069;-79
2022/09/10 09:59:25;;;;;;;3.45;1.80;;;19.60;57.70;;;;;;4991546;28;20126;-78
2022/09/10 10:01:53;;;;;;;2.45;1.83;;;19.60;57.70;;;;;;5016668;28;20741;-78
2022/09/10 10:04:25;;;;;;;3.53;1.80;;;19.60;58.10;;;;;;5026379;28;20094;-79
2022/09/10 10:06:57;;;;;;;2.88;1.33;;;19.60;56.10;;;;;;5070621;28;20040;-78
2022/09/10 10:09:32;;;;;;;3.17;1.50;;;19.60;56.50;;;;;;5037373;28;20140;-80
2022/09/10 10:12:03;;;;;;;1.98;1.48;;;19.60;56.90;;;;;;5054368;28;20364;-79
2022/09/10 10:14:36;;;;;;;2.33;1.27;;;19.50;55.60;;;;;;5050781;28;20108;-78
2022/09/10 10:17:50;;;;;;;3.70;1.50;;;19.50;56.00;;;;;;5037638;28;20413;-78
2022/09/10 10:20:16;;;;;;;2.38;1.15;;;19.50;56.20;;;;;;5050965;28;20038;-77
2022/09/10 10:22:44;;;;;;;4.70;1.65;;;19.50;56.10;;;;;;5053984;28;20029;-78
2022/09/10 10:25:29;;;;;;;2.75;1.58;;;19.60;55.10;;;;;;5053752;28;20025;-79
2022/09/10 10:27:56;;;;;;;2.38;1.33;;;19.50;54.10;;;;;;5052821;28;20107;-78
2022/09/10 10:30:23;;;;;;;2.17;1.30;;;19.40;53.20;;;;;;5054169;28;20408;-78
2022/09/10 10:32:55;;;;;;;2.25;1.65;;;19.40;54.20;;;;;;5052181;28;20021;-78
2022/09/10 10:35:48;;;;;;;2.35;1.70;;;19.40;53.90;;;;;;5053393;28;20510;-79
2022/09/10 10:38:29;;;;;;;3.97;1.98;;;19.30;52.20;;;;;;5055150;28;20079;-77
2022/09/10 10:41:04;;;;;;;3.97;2.20;;;19.10;49.90;;;;;;5052543;28;20062;-79
2022/09/10 10:43:49;;;;;;;4.88;2.42;;;19.10;50.80;;;;;;5052981;28;20060;-78
2022/09/10 10:46:47;;;;;;;4.43;2.10;;;19.00;51.30;;;;;;5053631;28;20119;-79
2022/09/10 10:49:27;;;;;;;2.70;1.88;;;19.00;53.30;;;;;;4970028;28;20122;-79
2022/09/10 10:52:12;;;;;;;1.98;1.42;;;19.10;52.90;;;;;;4978852;28;20034;-78
2022/09/10 10:55:20;;;;;;;2.38;1.60;;;19.10;53.20;;;;;;4979554;28;20552;-78
2022/09/10 10:58:04;;;;;;;2.03;1.30;;;19.10;53.60;;;;;;4963897;28;20077;-77
2022/09/10 11:00:44;;;;;;;3.72;1.42;;;19.10;54.00;;;;;;4968236;28;20054;-79
2022/09/10 11:03:54;;;;;;;3.97;1.40;;;19.10;53.80;;;;;;4964720;28;20118;-78
2022/09/10 11:06:23;;;;;;;3.20;1.50;;;19.10;53.20;;;;;;4882479;29;20052;-78
2022/09/10 11:08:56;;;;;;;2.83;1.70;;;19.20;53.00;;;;;;4866614;29;20057;-78
2022/09/10 11:11:39;;;;;;;2.63;1.75;;;19.20;53.40;;;;;;4866557;29;20044;-78
2022/09/10 11:14:31;;;;;;;3.00;1.80;;;19.20;53.30;;;;;;4882412;29;20049;-78
2022/09/10 11:17:13;;;;;;;4.38;1.80;;;19.10;52.40;;;;;;4881464;29;20033;-78
2022/09/10 11:20:00;;;;;;;2.55;1.80;;;19.10;51.50;;;;;;4883099;29;20472;-78
2022/09/10 11:22:34;;;;;;;1.58;1.40;;;19.10;51.50;;;;;;4883032;29;20143;-78
2022/09/10 11:25:27;;;;;;;2.35;1.80;;;19.10;52.00;;;;;;4888270;29;20059;-78
2022/09/10 11:28:10;;;;;;;2.17;1.50;;;19.10;52.50;;;;;;4938899;29;20031;-78
2022/09/10 11:30:39;;;;;;;1.75;1.60;;;19.10;51.50;;;;;;4922800;29;20043;-78
2022/09/10 11:33:29;;;;;;;2.95;1.70;;;19.10;51.30;;;;;;4923120;28;20569;-78
2022/09/10 11:36:16;;;;;;;4.90;1.88;;;19.10;50.50;;;;;;4923989;28;20066;-78
2022/09/10 11:39:07;;;;;;;3.22;1.80;;;19.10;50.50;;;;;;4941500;28;20044;-78
2022/09/10 11:41:40;;;;;;;2.83;1.95;;;19.10;50.10;;;;;;4943357;29;20055;-78
2022/09/10 11:44:16;;;;;;;3.50;1.70;;;19.10;50.00;;;;;;5020175;28;20529;-78
2022/09/10 11:47:10;;;;;;;2.05;1.77;;;19.00;51.00;;;;;;5053465;28;20074;-78
2022/09/10 11:50:00;;;;;;;4.63;2.10;;;19.10;50.90;;;;;;5057164;28;20044;-78
2022/09/10 11:52:29;;;;;;;3.15;1.90;;;19.10;50.50;;;;;;5057422;28;20032;-78
2022/09/10 11:54:57;;;;;;;3.53;2.03;;;19.00;50.70;;;;;;5044563;28;20043;-78
2022/09/10 11:57:42;;;;;;;2.55;1.88;;;19.00;50.40;;;;;;5055408;28;20049;-78
2022/09/10 12:00:16;;;;;;;3.25;2.10;;;19.00;50.90;;;;;;5057230;28;20051;-78
2022/09/10 12:03:14;;;;;;;4.07;1.98;;;19.00;50.50;;;;;;5043872;28;20407;-78
2022/09/10 12:05:49;;;;;;;4.35;2.08;;;19.00;50.70;;;;;;5042738;28;20422;-78
2022/09/10 12:08:23;;;;;;;4.82;2.00;;;18.90;50.30;;;;;;5055395;28;20475;-77
2022/09/10 12:11:28;;;;;;;2.43;1.70;;;19.00;50.50;;;;;;5056410;28;20502;-78
2022/09/10 12:13:56;;;;;;;3.90;2.13;;;19.00;50.00;;;;;;5022931;28;20043;-77
2022/09/10 12:16:31;;;;;;;5.28;2.35;;;18.90;50.40;;;;;;5055691;28;20040;-79
2022/09/10 12:18:58;;;;;;;2.28;1.60;;;18.90;49.90;;;;;;5057402;28;20025;-79
2022/09/10 12:21:33;;;;;;;4.07;1.90;;;18.90;50.60;;;;;;5058252;28;20034;-80
2022/09/10 12:24:02;;;;;;;5.82;2.20;;;18.90;51.00;;;;;;5057058;28;20040;-79
2022/09/10 12:26:28;;;;;;;2.33;1.50;;;18.90;51.30;;;;;;5056896;28;20036;-79
2022/09/10 12:29:00;;;;;;;3.50;1.70;;;18.90;51.80;;;;;;5039128;28;20086;-79
2022/09/10 12:31:26;;;;;;;2.75;1.85;;;18.90;50.60;;;;;;5036317;28;20037;-79
2022/09/10 12:33:53;;;;;;;4.75;2.30;;;18.90;49.70;;;;;;5036320;28;20515;-79
2022/09/10 12:36:24;;;;;;;4.18;2.40;;;18.90;49.20;;;;;;5035904;28;20045;-77
2022/09/10 12:39:31;;;;;;;5.70;2.40;;;18.90;49.80;;;;;;5035972;28;20068;-80
2022/09/10 12:42:02;;;;;;;3.58;1.88;;;18.90;49.30;;;;;;5004286;28;20041;-79
2022/09/10 12:44:35;;;;;;;3.00;1.92;;;18.90;49.60;;;;;;5009908;28;20037;-79
2022/09/10 12:47:15;;;;;;;4.07;2.00;;;18.90;50.20;;;;;;5001338;28;20034;-77
2022/09/10 12:49:51;;;;;;;3.60;2.17;;;18.90;49.60;;;;;;5020245;28;20076;-79
2022/09/10 12:52:49;;;;;;;3.08;2.05;;;18.90;49.50;;;;;;5022503;28;20468;-79
2022/09/10 12:55:37;;;;;;;3.90;1.98;;;18.90;49.50;;;;;;4929179;28;20054;-78
2022/09/10 12:58:21;;;;;;;3.33;2.00;;;18.90;49.80;;;;;;4944992;28;20086;-78
2022/09/10 13:00:53;;;;;;;3.17;2.00;;;18.90;49.20;;;;;;4927875;28;20032;-78
2022/09/10 13:03:21;;;;;;;4.20;1.88;;;18.80;49.70;;;;;;4945873;28;20455;-78
2022/09/10 13:05:53;;;;;;;2.75;1.77;;;18.80;50.40;;;;;;4946086;28;20039;-78
2022/09/10 13:08:46;;;;;;;3.38;1.70;;;18.90;49.80;;;;;;4945516;28;20024;-78
2022/09/10 13:11:20;;;;;;;4.22;2.17;;;18.90;50.20;;;;;;4942288;28;20046;-78
2022/09/10 13:13:58;;;;;;;2.27;1.50;;;18.90;50.10;;;;;;4933299;28;20072;-78